Garden City, SD (57236)

11:25 AM CDT on October 21, 2019 (GMT -0500)
Clark County Courthouse | | Change Station
Active Advisory: Wind Advisory

Elev 1839 ft 44.88 °N, 97.73 °W | Updated 5 minutes ago

Overcast
Overcast
43.8 °F
Feels Like 38 °F
N
11
Wind Variable Wind from ENE
Gusts 11.0 mph

Today
High -- | Low -- °F
--% Chance of Precip.
Yesterday
High -- | Low -- °F
Precip. -- in
Pressure 29.39 in
Visibility 7.0 miles
Clouds Overcast 1000 ft
Windchill 38 °F
Dew Point 41 °F
Humidity 91%
Rainfall 0.00 in
Snow Depth Not available.
7:53 AM 6:35 PM
Waning Gibbous, 48% visible
SPECI KATY 211615Z AUTO 02023G35KT 7SM OVC010 06/05 A2939 RMK AO2 PK WND 02035/1615 RAB02E14 CIG 008V012 P0000 T00610050
Pressure 29.39 in
Visibility 7.0 miles
Clouds Overcast 1000 ft
Windchill 38 °F
Dew Point 41 °F
Humidity 91%
Rainfall 0.00 in
Snow Depth Not available.
7:53 AM 6:35 PM
Waning Gibbous, 48% visible
SPECI KATY 211615Z AUTO 02023G35KT 7SM OVC010 06/05 A2939 RMK AO2 PK WND 02035/1615 RAB02E14 CIG 008V012 P0000 T00610050

Get Your Daily Forecast Email!

Thanks for signing up!

Be on the lookout for a verification email in your inbox.

You'll start receiving severe weather alerts in your inbox..

×

10-Day Weather Forecast

Almanac

Astronomy

Oct. 21, 2019 Rise Set
Actual Time
Civil Twilight
Nautical Twilight
Astronomical Twilight
Moon
Length of Visible Light
Length of Day
Tomorrow will be .
, % of the Moon is Illuminated

Today's Extremes

State Highs State Lows

Community

WunderPhotos

Category 6

Welcome to Category 6. This is the collective home for Weather Underground's featured writeups by Dr. Jeff Masters (right), Bob Henson (left), Chris Burt, and other regular contributors.

Nearby

Air Quality

  Air Quality AQ Index Pollutant
Not available.

Snow Depth

Station Depth Elevation

Earthquake Activity

City Distance Mag. Time & Date
Minimum magnitude displayed is 2.5.

Coastal Water Temperatures

Place Temperature

Stations

Nearby Weather Stations

Station Location Temp. Windchill Dew Point Humidity Wind Precip. Elev Updated Type
                   

Watches & Warnings

Wind Advisory
Issued: 9:14 AM CDT Oct. 21, 2019 – National Weather Service

... Wind Advisory remains in effect from 4 PM this afternoon to
4 am CDT Tuesday...

* what... northwest winds 25 to 35 mph with gusts up to 50 mph
expected.

* Where... Brown, Spink and Clark counties.

* When... from 4 PM this afternoon to 4 am CDT Tuesday.

* Impacts... gusty winds could blow around unsecured objects.
Tree limbs could be blown down and a few power outages may
result.


Precautionary/preparedness actions...

Use extra caution when driving, especially if operating a high
profile vehicle. Secure outdoor objects.